Time;durP1;ratioP1;P1;durP2;ratioP2;P2;SDS_P1;SDS_P2;PMS_P1;PMS_P2;Temp;Humidity;BMP_temperature;BMP_pressure;BME280_temperature;BME280_humidity;BME280_pressure;Samples;Min_cycle;Max_cycle;Signal;HPM_P1;HPM_P2
2021/09/23 14:18:42;;;;;;;;;;;;;;;19.62;64.78;101378.38;5071422;28;2018;-62
2021/09/23 14:21:07;;;;;;;;;;;;;;;19.52;65.26;101377.56;5071247;28;1001;-60
2021/09/23 14:23:32;;;;;;;;;;;;;;;19.53;65.76;101381.06;5071423;28;881;-61
2021/09/23 14:25:57;;;;;;;;;;;;;;;19.40;66.26;101392.16;5071395;28;850;-61
2021/09/23 14:28:23;;;;;;;;;;;;;;;19.33;68.11;101397.31;5071506;28;1634;-62
2021/09/23 14:30:48;;;;;;;;;;;;;;;19.26;67.34;101393.44;5071616;28;955;-62
2021/09/23 14:33:13;;;;;;;;;;;;;;;19.23;68.49;101393.72;5071118;28;906;-61
2021/09/23 14:35:38;;;;;;;;;;;;;;;19.22;68.76;101396.56;5070464;28;1824;-61
2021/09/23 14:38:04;;;;;;;;;;;;;;;19.18;69.43;101396.00;5070933;28;1968;-61
2021/09/23 14:40:34;;;;;;;;;;;;;;;19.21;67.43;101400.25;5071088;28;779;-61
2021/09/23 14:42:59;;;;;;;;;;;;;;;19.24;68.53;101402.69;5065664;28;2950;-61
2021/09/23 14:45:24;;;;;;;;;;;;;;;19.26;69.17;101387.19;5059812;28;1412;-61
2021/09/23 14:47:50;;;;;;;;;;;;;;;19.27;68.63;101380.78;5055805;28;1855;-60
2021/09/23 14:50:15;;;;;;;;;;;;;;;19.27;69.58;101378.09;5061091;28;1560;-61
2021/09/23 14:52:40;;;;;;;;;;;;;;;19.28;69.23;101383.34;5049204;28;1377;-60
2021/09/23 14:55:06;;;;;;;;;;;;;;;19.28;69.23;101382.50;5055436;28;1413;-60
2021/09/23 14:57:31;;;;;;;;;;;;;;;19.29;70.11;101376.09;5060447;28;1901;-60
2021/09/23 14:59:56;;;;;;;;;;;;;;;19.30;69.82;101367.00;5063697;28;1627;-61
2021/09/23 15:02:26;;;;;;;;;;;;;;;19.30;70.62;101365.16;5056657;28;1521;-60
2021/09/23 15:04:51;;;;;;;;;;;;;;;19.31;68.51;101366.00;5069291;28;1665;-60
2021/09/23 15:07:16;;;;;;;;;;;;;;;19.32;69.33;101365.88;5067504;28;1447;-61
2021/09/23 15:09:41;;;;;;;;;;;;;;;19.32;71.46;101367.72;5068696;28;1885;-61
2021/09/23 15:12:06;;;;;;;;;;;;;;;19.32;71.04;101376.69;5071512;28;1535;-61
2021/09/23 15:14:32;;;;;;;;;;;;;;;19.31;71.19;101377.66;5069992;28;1784;-60
2021/09/23 15:16:57;;;;;;;;;;;;;;;19.31;70.99;101372.28;5069622;28;1890;-61
2021/09/23 15:19:22;;;;;;;;;;;;;;;19.31;69.93;101374.13;5070092;28;1637;-61
2021/09/23 15:21:47;;;;;;;;;;;;;;;19.31;70.14;101366.88;5068490;28;2040;-60
2021/09/23 15:24:12;;;;;;;;;;;;;;;19.31;71.62;101357.91;5070084;28;1942;-61
2021/09/23 15:26:39;;;;;;;;;;;;;;;19.31;71.45;101353.34;5063734;28;1951;-61
2021/09/23 15:29:04;;;;;;;;;;;;;;;19.32;70.68;101354.19;5045927;28;1416;-60
2021/09/23 15:31:29;;;;;;;;;;;;;;;19.33;71.09;101350.50;5040116;28;1617;-60
2021/09/23 15:33:54;;;;;;;;;;;;;;;19.32;69.08;101336.13;5038446;28;1482;-61
2021/09/23 15:36:20;;;;;;;;;;;;;;;19.35;69.71;101341.22;5035836;28;1965;-60
2021/09/23 15:38:45;;;;;;;;;;;;;;;19.35;68.61;101353.88;5040105;28;1503;-61
2021/09/23 15:41:11;;;;;;;;;;;;;;;19.35;69.58;101352.03;5049563;28;1611;-61
2021/09/23 15:43:36;;;;;;;;;;;;;;;19.35;69.08;101345.78;5056465;28;1638;-61
2021/09/23 15:46:01;;;;;;;;;;;;;;;19.34;69.24;101355.78;5055480;28;1943;-61
2021/09/23 15:48:26;;;;;;;;;;;;;;;19.32;71.61;101356.91;5043740;28;1527;-61
2021/09/23 15:50:51;;;;;;;;;;;;;;;19.40;67.36;101357.03;5047778;28;1763;-60
2021/09/23 15:53:16;;;;;;;;;;;;;;;19.50;67.71;101347.09;5038322;28;1366;-60
2021/09/23 15:55:41;;;;;;;;;;;;;;;19.53;66.64;101340.53;5035685;28;1384;-60
2021/09/23 15:58:06;;;;;;;;;;;;;;;19.51;67.22;101329.88;5038112;28;1947;-62
2021/09/23 16:00:32;;;;;;;;;;;;;;;19.48;66.84;101331.97;5053458;28;1788;-61
2021/09/23 16:02:57;;;;;;;;;;;;;;;19.45;67.04;101338.53;5055053;28;1653;-61
2021/09/23 16:05:22;;;;;;;;;;;;;;;19.45;67.75;101322.31;5054149;28;1220;-61
2021/09/23 16:07:47;;;;;;;;;;;;;;;19.40;68.30;101332.69;5054169;28;1550;-62
2021/09/23 16:10:12;;;;;;;;;;;;;;;19.36;69.25;101332.13;5049156;28;1668;-62
2021/09/23 16:12:38;;;;;;;;;;;;;;;19.36;69.92;101333.97;5053654;28;1674;-61
2021/09/23 16:15:03;;;;;;;;;;;;;;;19.34;69.76;101327.88;5053644;28;1392;-61
2021/09/23 16:17:28;;;;;;;;;;;;;;;19.32;70.63;101327.19;5050511;28;1951;-61
2021/09/23 16:19:53;;;;;;;;;;;;;;;19.26;71.65;101330.44;5050578;28;1301;-61
2021/09/23 16:22:18;;;;;;;;;;;;;;;19.23;71.98;101325.31;5048089;28;1415;-62
2021/09/23 16:24:43;;;;;;;;;;;;;;;19.19;73.00;101323.91;5052319;28;1442;-62
2021/09/23 16:27:08;;;;;;;;;;;;;;;19.16;72.85;101330.47;5043281;28;1612;-61
2021/09/23 16:29:33;;;;;;;;;;;;;;;19.17;71.94;101331.31;5049271;28;1555;-61
2021/09/23 16:31:58;;;;;;;;;;;;;;;19.22;70.16;101329.88;5050753;28;1515;-60
2021/09/23 16:34:23;;;;;;;;;;;;;;;19.27;69.55;101315.94;5053249;28;1285;-61
2021/09/23 16:36:48;;;;;;;;;;;;;;;19.32;69.67;101310.97;5052859;28;1906;-61
2021/09/23 16:39:13;;;;;;;;;;;;;;;19.38;69.92;101313.06;5045593;28;1728;-59
2021/09/23 16:41:39;;;;;;;;;;;;;;;19.43;70.61;101316.19;5042935;28;1664;-61
2021/09/23 16:44:04;;;;;;;;;;;;;;;19.45;69.88;101310.66;5053589;28;1916;-60
2021/09/23 16:46:29;;;;;;;;;;;;;;;19.56;70.06;101305.94;5054617;28;1864;-60
2021/09/23 16:48:54;;;;;;;;;;;;;;;19.80;70.34;101301.88;5054948;28;1852;-61
2021/09/23 16:51:19;;;;;;;;;;;;;;;20.05;69.58;101306.63;5040819;28;1752;-60
2021/09/23 16:53:47;;;;;;;;;;;;;;;20.33;69.62;101310.19;5051200;28;1953;-60
2021/09/23 16:56:12;;;;;;;;;;;;;;;20.65;68.98;101317.84;5046155;28;2041;-60
2021/09/23 16:58:37;;;;;;;;;;;;;;;20.78;68.96;101311.03;5055310;28;2001;-60
2021/09/23 17:01:02;;;;;;;;;;;;;;;21.04;68.47;101311.13;5055090;28;1743;-60
2021/09/23 17:03:28;;;;;;;;;;;;;;;21.33;68.12;101305.44;5054911;28;1821;-60
2021/09/23 17:05:58;;;;;;;;;;;;;;;21.51;67.68;101315.38;5054813;28;1947;-60
2021/09/23 17:08:24;;;;;;;;;;;;;;;21.64;67.76;101305.84;5055401;28;1451;-60
2021/09/23 17:10:49;;;;;;;;;;;;;;;21.81;67.63;101309.50;5042095;28;2064;-60
2021/09/23 17:13:14;;;;;;;;;;;;;;;22.06;67.14;101310.50;5053515;28;2325;-60
2021/09/23 17:15:39;;;;;;;;;;;;;;;22.32;67.01;101308.56;5054789;28;1866;-60
2021/09/23 17:18:04;;;;;;;;;;;;;;;22.45;66.90;101311.66;5054456;28;2164;-60
2021/09/23 17:20:29;;;;;;;;;;;;;;;22.47;67.09;101306.91;5054551;28;1806;-61
2021/09/23 17:22:54;;;;;;;;;;;;;;;22.61;66.44;101302.69;5040596;28;2144;-60
2021/09/23 17:25:19;;;;;;;;;;;;;;;22.76;66.17;101309.19;5034619;28;1977;-60
2021/09/23 17:27:44;;;;;;;;;;;;;;;22.82;66.41;101313.97;5034867;28;1900;-60
2021/09/23 17:30:10;;;;;;;;;;;;;;;22.88;66.09;101320.63;5048242;28;1843;-60
2021/09/23 17:32:35;;;;;;;;;;;;;;;22.80;66.49;101316.00;5049607;28;1673;-59
2021/09/23 17:35:00;;;;;;;;;;;;;;;22.92;65.85;101313.84;5040079;28;1917;-60
2021/09/23 17:37:25;;;;;;;;;;;;;;;22.81;66.30;101311.44;5034368;28;1981;-59
2021/09/23 17:39:50;;;;;;;;;;;;;;;22.69;66.13;101313.59;5061464;28;2005;-60
2021/09/23 17:42:16;;;;;;;;;;;;;;;22.42;67.04;101317.41;5054278;28;2223;-61
2021/09/23 17:44:41;;;;;;;;;;;;;;;22.02;68.18;101315.41;5054457;28;2085;-61
2021/09/23 17:47:06;;;;;;;;;;;;;;;21.73;68.03;101323.84;5038483;28;1705;-60
2021/09/23 17:49:31;;;;;;;;;;;;;;;21.54;68.71;101324.06;5037490;28;1879;-59
2021/09/23 17:51:56;;;;;;;;;;;;;;;21.41;68.77;101313.66;5047430;28;1730;-60
2021/09/23 17:54:21;;;;;;;;;;;;;;;21.28;68.56;101315.06;5049901;28;1727;-60
2021/09/23 17:56:46;;;;;;;;;;;;;;;21.19;68.50;101321.41;5039044;28;1959;-60
2021/09/23 17:59:11;;;;;;;;;;;;;;;21.12;68.93;101332.88;5064354;28;1651;-60
2021/09/23 18:01:36;;;;;;;;;;;;;;;21.06;69.37;101325.38;5043205;28;1223;-61
2021/09/23 18:04:01;;;;;;;;;;;;;;;21.04;69.20;101326.53;5050660;28;1614;-61
2021/09/23 18:06:26;;;;;;;;;;;;;;;20.98;68.91;101330.69;5049710;28;1720;-62
2021/09/23 18:08:52;;;;;;;;;;;;;;;20.93;69.18;101343.03;5049936;28;1820;-62
2021/09/23 18:11:17;;;;;;;;;;;;;;;20.86;69.21;101345.50;5047763;28;1557;-62
2021/09/23 18:13:42;;;;;;;;;;;;;;;20.85;69.00;101351.91;5044765;28;1402;-62
2021/09/23 18:16:07;;;;;;;;;;;;;;;20.80;69.73;101348.81;5053162;28;1626;-62
2021/09/23 18:18:33;;;;;;;;;;;;;;;20.77;69.71;101351.84;5052075;28;1914;-62
2021/09/23 18:20:59;;;;;;;;;;;;;;;20.72;69.92;101365.84;5052101;28;1606;-63
2021/09/23 18:23:24;;;;;;;;;;;;;;;20.64;69.92;101363.03;5052708;28;1649;-61
2021/09/23 18:25:49;;;;;;;;;;;;;;;20.65;69.53;101363.88;5053124;28;1866;-61
2021/09/23 18:28:14;;;;;;;;;;;;;;;20.62;69.56;101370.44;5053084;28;1847;-61
2021/09/23 18:30:39;;;;;;;;;;;;;;;20.61;69.87;101370.59;5050681;28;1850;-61
2021/09/23 18:33:04;;;;;;;;;;;;;;;20.60;69.81;101364.31;5053550;28;1856;-62
2021/09/23 18:35:29;;;;;;;;;;;;;;;20.56;70.19;101375.63;5053361;28;1610;-63
2021/09/23 18:37:54;;;;;;;;;;;;;;;20.56;70.29;101375.63;5053456;28;1894;-62
2021/09/23 18:40:19;;;;;;;;;;;;;;;20.52;69.50;101380.50;5045639;28;1781;-60
2021/09/23 18:42:45;;;;;;;;;;;;;;;20.48;70.30;101389.91;5044585;28;1757;-60
2021/09/23 18:45:10;;;;;;;;;;;;;;;20.47;69.77;101390.91;5048156;28;1437;-60
2021/09/23 18:47:35;;;;;;;;;;;;;;;20.43;69.54;101384.94;5046867;28;1666;-60
2021/09/23 18:50:00;;;;;;;;;;;;;;;20.41;70.16;101388.84;5052458;28;1732;-60
2021/09/23 18:52:26;;;;;;;;;;;;;;;20.36;70.46;101397.41;5044328;28;1666;-60
2021/09/23 18:54:51;;;;;;;;;;;;;;;20.35;70.09;101392.94;5047305;28;1650;-60
2021/09/23 18:57:16;;;;;;;;;;;;;;;20.37;70.55;101400.97;5049097;28;1874;-61
2021/09/23 18:59:41;;;;;;;;;;;;;;;20.33;70.04;101399.50;5052354;28;1679;-61
2021/09/23 19:02:06;;;;;;;;;;;;;;;20.29;70.37;101398.94;5047550;28;1596;-61
2021/09/23 19:04:31;;;;;;;;;;;;;;;20.28;70.29;101409.91;5047847;28;1766;-61
2021/09/23 19:06:57;;;;;;;;;;;;;;;20.27;70.51;101406.38;5048319;28;1571;-59
2021/09/23 19:09:22;;;;;;;;;;;;;;;20.25;70.60;101404.78;5055209;28;1534;-59
2021/09/23 19:11:47;;;;;;;;;;;;;;;20.23;70.56;101415.81;5052085;28;1706;-59
2021/09/23 19:14:12;;;;;;;;;;;;;;;20.23;70.54;101414.94;5051112;28;1910;-59
2021/09/23 19:16:37;;;;;;;;;;;;;;;20.21;70.69;101431.34;5056242;28;1910;-59
2021/09/23 19:19:02;;;;;;;;;;;;;;;20.19;71.61;101419.81;5054018;28;1850;-60
2021/09/23 19:21:27;;;;;;;;;;;;;;;20.19;71.32;101427.91;5055065;28;1582;-61
2021/09/23 19:23:53;;;;;;;;;;;;;;;20.16;71.34;101430.91;5051467;28;1632;-61
2021/09/23 19:26:18;;;;;;;;;;;;;;;20.15;71.58;101439.19;5051952;28;1615;-60
2021/09/23 19:28:43;;;;;;;;;;;;;;;20.12;71.66;101437.63;5056302;28;1489;-61
2021/09/23 19:31:08;;;;;;;;;;;;;;;20.12;70.56;101434.91;5055041;28;1612;-61
2021/09/23 19:33:33;;;;;;;;;;;;;;;20.09;71.38;101440.59;5049978;28;1509;-60
2021/09/23 19:35:58;;;;;;;;;;;;;;;20.08;70.87;101442.47;5056675;28;942;-60
2021/09/23 19:38:23;;;;;;;;;;;;;;;20.08;70.93;101439.75;5056911;28;1866;-60
2021/09/23 19:40:48;;;;;;;;;;;;;;;20.05;71.27;101436.50;5056758;28;1092;-59
2021/09/23 19:43:13;;;;;;;;;;;;;;;20.02;71.70;101436.81;5056167;28;1985;-61
2021/09/23 19:45:38;;;;;;;;;;;;;;;20.01;71.16;101433.25;5056535;28;2371;-60
2021/09/23 19:48:03;;;;;;;;;;;;;;;20.04;71.38;101430.25;5056383;28;1001;-60
2021/09/23 19:50:29;;;;;;;;;;;;;;;20.06;71.49;101422.81;5056649;28;1713;-60
2021/09/23 19:52:54;;;;;;;;;;;;;;;20.04;70.67;101426.69;5056715;28;858;-61
2021/09/23 19:55:19;;;;;;;;;;;;;;;20.03;71.00;101433.94;5056547;28;1005;-60
2021/09/23 19:57:45;;;;;;;;;;;;;;;20.04;71.06;101437.50;5056462;28;2080;-60
2021/09/23 20:00:10;;;;;;;;;;;;;;;20.06;71.34;101435.53;5056033;28;2005;-61
2021/09/23 20:02:35;;;;;;;;;;;;;;;20.03;71.14;101433.94;5056165;28;2029;-61
2021/09/23 20:05:00;;;;;;;;;;;;;;;20.05;72.48;101444.63;5055676;28;1894;-61
2021/09/23 20:07:25;;;;;;;;;;;;;;;20.04;72.72;101437.50;5055093;28;1533;-61
2021/09/23 20:09:50;;;;;;;;;;;;;;;20.02;72.13;101443.06;5055705;28;1781;-61
2021/09/23 20:12:16;;;;;;;;;;;;;;;20.00;72.81;101436.94;5055670;28;1714;-61
2021/09/23 20:14:41;;;;;;;;;;;;;;;19.99;72.79;101448.75;5056121;28;1650;-61
2021/09/23 20:17:06;;;;;;;;;;;;;;;19.99;72.90;101445.22;5056283;28;1985;-62
2021/09/23 20:19:31;;;;;;;;;;;;;;;19.99;72.83;101445.22;5054399;28;1872;-61
2021/09/23 20:21:56;;;;;;;;;;;;;;;19.97;72.64;101448.06;5055728;28;846;-61
2021/09/23 20:24:21;;;;;;;;;;;;;;;19.97;73.20;101444.50;5055717;28;1075;-61
2021/09/23 20:26:46;;;;;;;;;;;;;;;19.95;73.20;101447.34;5056200;28;1736;-61
2021/09/23 20:29:11;;;;;;;;;;;;;;;19.94;72.90;101437.53;5054665;28;1720;-62
2021/09/23 20:31:37;;;;;;;;;;;;;;;19.93;73.25;101443.06;5055052;28;1670;-62
2021/09/23 20:34:02;;;;;;;;;;;;;;;19.93;73.27;101443.06;5053282;28;1898;-60
2021/09/23 20:36:27;;;;;;;;;;;;;;;19.91;73.44;101447.78;5054605;28;1894;-60
2021/09/23 20:38:52;;;;;;;;;;;;;;;19.92;72.95;101444.06;5055303;28;1929;-60
2021/09/23 20:41:17;;;;;;;;;;;;;;;19.89;72.98;101441.66;5055327;28;1600;-59
2021/09/23 20:43:42;;;;;;;;;;;;;;;19.88;73.70;101451.66;5055062;28;1706;-60
2021/09/23 20:46:07;;;;;;;;;;;;;;;19.87;73.12;101447.22;5054957;28;1623;-59
2021/09/23 20:48:32;;;;;;;;;;;;;;;19.88;73.47;101450.78;5055075;28;1610;-59
2021/09/23 20:50:57;;;;;;;;;;;;;;;19.86;73.08;101450.94;5054986;28;1619;-60
2021/09/23 20:53:22;;;;;;;;;;;;;;;19.85;72.72;101448.38;5055003;28;1656;-59
2021/09/23 20:55:49;;;;;;;;;;;;;;;19.84;73.04;101449.38;5055154;28;1736;-59
2021/09/23 20:58:19;;;;;;;;;;;;;;;19.84;72.81;101452.06;5054725;28;1953;-60
2021/09/23 21:00:44;;;;;;;;;;;;;;;19.82;73.15;101454.06;5054955;28;1662;-59
2021/09/23 21:03:10;;;;;;;;;;;;;;;19.81;72.08;101455.06;5054688;28;1728;-60
2021/09/23 21:05:35;;;;;;;;;;;;;;;19.80;72.76;101454.22;5054724;28;1653;-60
2021/09/23 21:08:00;;;;;;;;;;;;;;;19.80;73.29;101453.34;5054762;28;1568;-61
2021/09/23 21:10:25;;;;;;;;;;;;;;;19.79;73.03;101451.66;5054650;28;1658;-59
2021/09/23 21:12:50;;;;;;;;;;;;;;;19.77;73.23;101444.53;5055193;28;960;-58
2021/09/23 21:15:15;;;;;;;;;;;;;;;19.76;72.76;101441.97;5053655;28;1180;-58
2021/09/23 21:17:40;;;;;;;;;;;;;;;19.75;72.25;101435.69;5054746;28;1915;-58
2021/09/23 21:20:05;;;;;;;;;;;;;;;19.74;73.13;101439.41;5054668;28;941;-58
2021/09/23 21:22:30;;;;;;;;;;;;;;;19.74;73.28;101438.53;5055225;28;824;-61
2021/09/23 21:24:56;;;;;;;;;;;;;;;19.73;72.65;101439.53;5055196;28;1661;-61
2021/09/23 21:27:21;;;;;;;;;;;;;;;19.73;72.75;101447.66;5053863;28;1911;-61
2021/09/23 21:29:47;;;;;;;;;;;;;;;19.72;73.00;101444.09;5054984;28;870;-61
2021/09/23 21:32:12;;;;;;;;;;;;;;;19.72;73.71;101451.34;5055002;28;933;-61
2021/09/23 21:34:40;;;;;;;;;;;;;;;19.71;72.73;101449.66;5055011;28;874;-61
2021/09/23 21:37:05;;;;;;;;;;;;;;;19.69;72.77;101447.13;5053918;28;1917;-61
2021/09/23 21:39:30;;;;;;;;;;;;;;;19.69;73.56;101443.56;5054571;28;906;-62
2021/09/23 21:41:55;;;;;;;;;;;;;;;19.68;73.17;101445.41;5054169;28;842;-62
2021/09/23 21:44:21;;;;;;;;;;;;;;;19.67;73.38;101449.09;5054349;28;854;-62
2021/09/23 21:46:46;;;;;;;;;;;;;;;19.68;72.87;101444.56;5054566;28;826;-61
2021/09/23 21:49:11;;;;;;;;;;;;;;;19.66;73.16;101442.00;5052597;28;1934;-61
2021/09/23 21:51:36;;;;;;;;;;;;;;;19.65;72.93;101440.28;5054114;28;905;-61
2021/09/23 21:54:01;;;;;;;;;;;;;;;19.64;73.08;101438.56;5054454;28;745;-60
2021/09/23 21:56:26;;;;;;;;;;;;;;;19.64;72.53;101440.41;5054264;28;1894;-60
2021/09/23 21:58:51;;;;;;;;;;;;;;;19.62;73.21;101432.44;5054224;28;2126;-61
2021/09/23 22:01:16;;;;;;;;;;;;;;;19.61;72.57;101425.34;5054109;28;843;-61
2021/09/23 22:03:43;;;;;;;;;;;;;;;19.60;73.34;101434.44;5054004;28;1664;-61
2021/09/23 22:06:08;;;;;;;;;;;;;;;19.61;72.36;101432.59;5054070;28;924;-61
2021/09/23 22:08:33;;;;;;;;;;;;;;;19.60;72.57;101430.88;5054117;28;1949;-59
2021/09/23 22:10:59;;;;;;;;;;;;;;;19.59;73.73;101431.88;5054042;28;1907;-60
2021/09/23 22:13:24;;;;;;;;;;;;;;;19.57;72.98;101432.03;5053961;28;838;-60
2021/09/23 22:15:49;;;;;;;;;;;;;;;19.57;73.05;101432.03;5054235;28;1076;-60
2021/09/23 22:18:14;;;;;;;;;;;;;;;19.57;73.15;101425.75;5045349;28;2050;-59
2021/09/23 22:20:39;;;;;;;;;;;;;;;19.57;73.68;101423.06;5034327;28;815;-60
2021/09/23 22:23:04;;;;;;;;;;;;;;;19.56;73.13;101424.91;5032873;28;1531;-59
2021/09/23 22:25:33;;;;;;;;;;;;;;;19.54;73.52;101426.88;5034146;28;815;-60
2021/09/23 22:27:59;;;;;;;;;;;;;;;19.54;73.53;101432.31;5042351;28;2007;-60
2021/09/23 22:30:25;;;;;;;;;;;;;;;19.55;73.74;101423.19;5053811;28;875;-60
2021/09/23 22:32:50;;;;;;;;;;;;;;;19.53;73.27;101427.88;5053986;28;883;-60
2021/09/23 22:35:15;;;;;;;;;;;;;;;19.53;73.64;101427.88;5053589;28;804;-60
2021/09/23 22:37:40;;;;;;;;;;;;;;;19.52;73.47;101428.06;5053246;28;2020;-60
2021/09/23 22:40:05;;;;;;;;;;;;;;;19.51;73.69;101421.81;5057287;28;1096;-60
2021/09/23 22:42:30;;;;;;;;;;;;;;;19.51;73.87;101421.81;5057848;28;1615;-60
2021/09/23 22:44:55;;;;;;;;;;;;;;;19.50;73.07;101422.78;5057688;28;894;-60
2021/09/23 22:47:20;;;;;;;;;;;;;;;19.49;74.05;101421.06;5057328;28;1933;-60
2021/09/23 22:49:45;;;;;;;;;;;;;;;19.48;73.42;101427.44;5057508;28;1017;-60
2021/09/23 22:52:10;;;;;;;;;;;;;;;19.48;73.53;101424.75;5057715;28;934;-60
2021/09/23 22:54:35;;;;;;;;;;;;;;;19.48;74.18;101426.59;5057867;28;846;-60
2021/09/23 22:57:01;;;;;;;;;;;;;;;19.46;74.16;101421.34;5057523;28;1957;-60
2021/09/23 22:59:26;;;;;;;;;;;;;;;19.45;74.04;101416.91;5057334;28;2104;-60
2021/09/23 23:01:51;;;;;;;;;;;;;;;19.45;73.66;101416.06;5057585;28;1010;-60
2021/09/23 23:04:16;;;;;;;;;;;;;;;19.44;73.62;101426.03;5057594;28;910;-60
2021/09/23 23:06:41;;;;;;;;;;;;;;;19.43;74.22;101416.22;5057057;28;1191;-60
2021/09/23 23:09:06;;;;;;;;;;;;;;;19.42;74.26;101418.06;5057182;28;2006;-60
2021/09/23 23:11:31;;;;;;;;;;;;;;;19.42;73.42;101411.78;5057638;28;906;-60
2021/09/23 23:13:56;;;;;;;;;;;;;;;19.41;74.81;101416.34;5057435;28;993;-60
2021/09/23 23:16:22;;;;;;;;;;;;;;;19.40;74.35;101414.63;5056987;28;930;-59
2021/09/23 23:18:47;;;;;;;;;;;;;;;19.39;74.03;101409.38;5057047;28;1890;-60
2021/09/23 23:21:12;;;;;;;;;;;;;;;19.39;74.73;101418.34;5055667;28;833;-60
2021/09/23 23:23:37;;;;;;;;;;;;;;;19.39;74.48;101414.78;5057548;28;1482;-60
2021/09/23 23:26:02;;;;;;;;;;;;;;;19.38;74.62;101421.19;5057079;28;914;-59
2021/09/23 23:28:27;;;;;;;;;;;;;;;19.36;74.21;101413.22;5056990;28;1907;-59
2021/09/23 23:30:52;;;;;;;;;;;;;;;19.35;74.49;101411.50;5057045;28;807;-59
2021/09/23 23:33:17;;;;;;;;;;;;;;;19.35;73.81;101406.09;5056929;28;1017;-58
2021/09/23 23:35:42;;;;;;;;;;;;;;;19.34;74.81;101409.81;5057107;28;1008;-59
2021/09/23 23:38:07;;;;;;;;;;;;;;;19.33;74.78;101404.56;5056763;28;1918;-59
2021/09/23 23:40:35;;;;;;;;;;;;;;;19.32;75.04;101417.22;5056689;28;2029;-59
2021/09/23 23:43:04;;;;;;;;;;;;;;;19.32;74.93;101413.66;5057003;28;787;-58
2021/09/23 23:45:29;;;;;;;;;;;;;;;19.32;73.84;101408.25;5056443;28;898;-58
2021/09/23 23:47:54;;;;;;;;;;;;;;;19.30;75.13;101412.94;5056274;28;1933;-58
2021/09/23 23:50:19;;;;;;;;;;;;;;;19.29;74.98;101406.69;5054770;28;1067;-59
2021/09/23 23:52:44;;;;;;;;;;;;;;;19.29;74.64;101405.84;5056725;28;842;-59
2021/09/23 23:55:09;;;;;;;;;;;;;;;19.29;74.99;101400.44;5056525;28;1068;-59
2021/09/23 23:57:34;;;;;;;;;;;;;;;19.28;74.99;101402.28;5056049;28;1892;-59
2021/09/23 23:59:59;;;;;;;;;;;;;;;19.28;74.27;101390.63;5055094;28;1945;-59
